Time;durP1;ratioP1;P1;durP2;ratioP2;P2;SDS_P1;SDS_P2;PMS_P1;PMS_P2;Temp;Humidity;BMP_temperature;BMP_pressure;BME280_temperature;BME280_humidity;BME280_pressure;Samples;Min_cycle;Max_cycle;Signal;HPM_P1;HPM_P2
2022/03/26 00:00:59;;;;;;;21.60;10.63;;;;;8.90;102534.00;;;;5107915;28;20237;-70
2022/03/26 00:03:45;;;;;;;23.47;9.37;;;;;8.70;102531.00;;;;5105196;28;20261;-68
2022/03/26 00:06:32;;;;;;;23.47;9.53;;;;;8.60;102518.00;;;;5095637;28;20234;-69
2022/03/26 00:09:18;;;;;;;19.73;9.20;;;;;8.60;102539.00;;;;5094170;28;20826;-66
2022/03/26 00:12:06;;;;;;;22.03;9.03;;;;;8.50;102538.00;;;;5107442;28;20620;-68
2022/03/26 00:14:54;;;;;;;20.30;9.10;;;;;8.40;102542.00;;;;5106544;28;20599;-67
2022/03/26 00:17:40;;;;;;;22.67;9.67;;;;;8.50;102537.00;;;;5106608;28;20239;-70
2022/03/26 00:20:26;;;;;;;21.43;8.27;;;;;8.40;102532.00;;;;5090892;28;20741;-70
2022/03/26 00:23:12;;;;;;;19.63;9.60;;;;;8.20;102536.00;;;;5082303;28;20310;-70
2022/03/26 00:25:59;;;;;;;19.50;8.60;;;;;8.30;102539.00;;;;5084751;28;20237;-66
2022/03/26 00:28:45;;;;;;;26.03;9.30;;;;;8.20;102535.00;;;;5087315;28;20245;-67
2022/03/26 00:31:33;;;;;;;24.00;8.10;;;;;8.10;102527.00;;;;5074547;28;20258;-68
2022/03/26 00:34:20;;;;;;;11.60;7.77;;;;;8.00;102538.00;;;;5073548;28;20241;-66
2022/03/26 00:37:06;;;;;;;19.60;8.80;;;;;8.10;102523.00;;;;5086825;28;20228;-67
2022/03/26 00:39:53;;;;;;;20.20;8.37;;;;;7.90;102534.00;;;;5086408;28;20613;-67
2022/03/26 00:42:40;;;;;;;24.53;9.33;;;;;7.90;102534.00;;;;5084558;28;20255;-68
2022/03/26 00:45:26;;;;;;;15.23;7.93;;;;;7.90;102532.00;;;;5072442;28;20978;-68
2022/03/26 00:48:14;;;;;;;13.00;7.17;;;;;7.80;102538.00;;;;5106849;28;20242;-69
2022/03/26 00:51:01;;;;;;;18.20;8.17;;;;;7.70;102534.00;;;;5106605;28;20316;-69
2022/03/26 00:53:47;;;;;;;24.13;7.60;;;;;7.70;102539.00;;;;5104377;28;20235;-69
2022/03/26 00:56:33;;;;;;;17.53;8.43;;;;;7.60;102540.00;;;;5094426;28;20238;-69
2022/03/26 00:59:19;;;;;;;18.97;8.37;;;;;7.60;102542.00;;;;5091272;28;20402;-67
2022/03/26 01:02:07;;;;;;;17.57;7.70;;;;;7.50;102537.00;;;;5103265;28;20725;-68
2022/03/26 01:04:59;;;;;;;18.47;7.87;;;;;7.50;102546.00;;;;5106284;27;20752;-68
2022/03/26 01:07:46;;;;;;;19.93;8.57;;;;;7.50;102534.00;;;;5107045;28;20336;-69
2022/03/26 01:10:32;;;;;;;18.60;7.20;;;;;7.50;102539.00;;;;5093539;27;20222;-65
2022/03/26 01:13:19;;;;;;;18.67;8.67;;;;;7.40;102548.00;;;;5106336;27;20271;-68
2022/03/26 01:16:06;;;;;;;18.07;8.07;;;;;7.30;102549.00;;;;5102752;28;20779;-69
2022/03/26 01:18:53;;;;;;;17.57;7.47;;;;;7.30;102540.00;;;;5084352;28;20231;-68
2022/03/26 01:21:40;;;;;;;17.40;8.07;;;;;7.30;102535.00;;;;5077546;28;20288;-68
2022/03/26 01:24:26;;;;;;;13.90;7.20;;;;;7.30;102540.00;;;;5078663;28;20277;-69
2022/03/26 01:27:13;;;;;;;15.40;7.50;;;;;7.30;102540.00;;;;5086042;28;20234;-68
2022/03/26 01:29:59;;;;;;;15.60;8.00;;;;;7.40;102541.00;;;;5086029;28;20892;-69
2022/03/26 01:32:46;;;;;;;17.67;7.73;;;;;7.30;102542.00;;;;5063039;28;20742;-69
2022/03/26 01:35:32;;;;;;;20.23;7.87;;;;;7.20;102540.00;;;;5076255;28;20231;-68
2022/03/26 01:38:20;;;;;;;16.10;7.23;;;;;7.00;102546.00;;;;5105505;28;20702;-68
2022/03/26 01:41:06;;;;;;;14.87;7.07;;;;;7.10;102537.00;;;;5087278;28;20231;-69
2022/03/26 01:43:53;;;;;;;18.30;8.17;;;;;7.10;102540.00;;;;5083076;28;20235;-68
2022/03/26 01:46:47;;;;;;;16.80;7.40;;;;;6.90;102546.00;;;;5103460;28;20242;-69
2022/03/26 01:49:33;;;;;;;16.93;7.13;;;;;7.00;102535.00;;;;5086193;28;20336;-68
2022/03/26 01:52:20;;;;;;;17.87;7.53;;;;;7.00;102489.00;;;;5105548;28;20281;-69
2022/03/26 01:55:09;;;;;;;14.27;7.40;;;;;7.00;102538.00;;;;5089415;28;20238;-69
2022/03/26 01:57:55;;;;;;;15.70;7.80;;;;;6.90;102543.00;;;;5085576;28;20238;-69
2022/03/26 02:00:41;;;;;;;16.43;7.07;;;;;6.80;102536.00;;;;5082074;28;20231;-68
2022/03/26 02:03:28;;;;;;;14.80;6.97;;;;;6.70;102534.00;;;;5085338;28;20315;-69
2022/03/26 02:06:14;;;;;;;19.20;7.50;;;;;6.60;102530.00;;;;5079181;28;20244;-65
2022/03/26 02:09:02;;;;;;;15.77;6.73;;;;;6.70;102532.00;;;;5084897;28;20665;-68
2022/03/26 02:11:50;;;;;;;13.73;7.60;;;;;6.70;102525.00;;;;5085162;28;20308;-69
2022/03/26 02:14:36;;;;;;;15.93;7.93;;;;;6.70;102525.00;;;;5092861;28;20238;-68
2022/03/26 02:17:23;;;;;;;20.27;7.67;;;;;6.50;102530.00;;;;5105745;28;20222;-68
2022/03/26 02:20:13;;;;;;;15.30;7.67;;;;;6.60;102520.00;;;;5082240;28;20868;-68
2022/03/26 02:23:01;;;;;;;13.77;7.67;;;;;6.50;102481.00;;;;5076792;28;20370;-67
2022/03/26 02:25:47;;;;;;;14.80;7.03;;;;;6.60;102520.00;;;;5085469;28;20238;-67
2022/03/26 02:28:34;;;;;;;15.27;7.93;;;;;6.50;102494.00;;;;5782728;22;21118;-66
2022/03/26 02:31:21;;;;;;;16.03;7.20;;;;;6.50;102526.00;;;;5015797;28;20236;-68
2022/03/26 02:34:08;;;;;;;18.97;7.63;;;;;6.30;102532.00;;;;5016172;28;20305;-69
2022/03/26 02:36:56;;;;;;;17.87;8.27;;;;;6.30;102525.00;;;;5027906;28;20237;-70
2022/03/26 02:39:42;;;;;;;20.40;7.87;;;;;6.20;102531.00;;;;5040622;28;20291;-69
2022/03/26 02:42:28;;;;;;;18.00;7.93;;;;;6.30;102534.00;;;;5012143;28;20566;-71
2022/03/26 02:45:15;;;;;;;19.27;7.17;;;;;6.30;102530.00;;;;5005573;28;20234;-70
2022/03/26 02:48:01;;;;;;;19.40;8.03;;;;;6.20;102521.00;;;;5038421;28;20245;-70
2022/03/26 02:50:47;;;;;;;17.97;7.80;;;;;6.20;102521.00;;;;5048671;28;20233;-70
2022/03/26 02:53:35;;;;;;;14.13;7.47;;;;;6.10;102526.00;;;;5049210;28;20298;-71
2022/03/26 02:56:21;;;;;;;17.47;7.80;;;;;6.10;102519.00;;;;5035656;28;20260;-66
2022/03/26 02:59:07;;;;;;;14.80;7.90;;;;;6.10;102520.00;;;;5037609;28;20307;-68
2022/03/26 03:01:53;;;;;;;18.33;8.17;;;;;5.90;102515.00;;;;5028660;28;20720;-68
2022/03/26 03:04:40;;;;;;;17.20;7.33;;;;;6.00;102511.00;;;;5021079;28;20728;-68
2022/03/26 03:07:27;;;;;;;15.60;7.53;;;;;5.90;102520.00;;;;5017340;28;20270;-68
2022/03/26 03:10:15;;;;;;;13.97;7.17;;;;;5.80;102516.00;;;;5008412;28;20308;-65
2022/03/26 03:13:01;;;;;;;16.10;7.67;;;;;5.80;102521.00;;;;5008756;28;20597;-69
2022/03/26 03:15:47;;;;;;;17.67;7.13;;;;;5.70;102517.00;;;;5019539;28;20237;-69
2022/03/26 03:18:34;;;;;;;21.47;7.00;;;;;5.80;102509.00;;;;5026559;28;20233;-69
2022/03/26 03:21:23;;;;;;;17.20;7.03;;;;;5.70;102509.00;;;;5024242;28;20229;-70
2022/03/26 03:24:09;;;;;;;16.27;7.80;;;;;5.80;102515.00;;;;5016931;28;20991;-69
2022/03/26 03:26:57;;;;;;;14.03;7.03;;;;;5.70;102509.00;;;;5027874;28;20237;-69
2022/03/26 03:29:44;;;;;;;17.47;6.90;;;;;5.90;102512.00;;;;5020053;28;20315;-69
2022/03/26 03:32:30;;;;;;;13.77;7.03;;;;;5.80;102503.00;;;;5017933;28;20780;-69
2022/03/26 03:35:16;;;;;;;18.60;7.37;;;;;5.80;102504.00;;;;5013983;28;20225;-69
2022/03/26 03:38:03;;;;;;;18.27;7.47;;;;;5.80;102455.00;;;;5015546;28;20230;-68
2022/03/26 03:40:49;;;;;;;19.97;7.43;;;;;5.80;102512.00;;;;5007683;28;20353;-68
2022/03/26 03:43:37;;;;;;;18.77;6.97;;;;;5.60;102513.00;;;;5022444;28;20604;-68
2022/03/26 03:46:23;;;;;;;16.63;6.60;;;;;5.60;102510.00;;;;5019663;28;20252;-69
2022/03/26 03:49:09;;;;;;;19.47;7.33;;;;;5.70;102509.00;;;;5010882;28;20311;-68
2022/03/26 03:51:55;;;;;;;15.60;7.17;;;;;5.70;102510.00;;;;5027624;28;20236;-70
2022/03/26 03:54:42;;;;;;;19.07;7.67;;;;;5.50;102503.00;;;;5027659;28;20230;-68
2022/03/26 03:57:28;;;;;;;16.27;7.13;;;;;5.60;102515.00;;;;5016296;28;20368;-68
2022/03/26 04:00:17;;;;;;;15.43;7.63;;;;;5.40;102502.00;;;;5012103;28;20597;-69
2022/03/26 04:03:03;;;;;;;17.13;7.27;;;;;5.20;102510.00;;;;5027115;28;20233;-69
2022/03/26 04:05:49;;;;;;;15.00;6.60;;;;;5.10;102509.00;;;;5026868;28;20244;-68
2022/03/26 04:08:36;;;;;;;14.60;7.30;;;;;5.20;102505.00;;;;5027148;28;20308;-68
2022/03/26 04:11:22;;;;;;;13.87;6.17;;;;;5.30;102515.00;;;;5014170;28;20233;-67
2022/03/26 04:14:08;;;;;;;15.23;6.67;;;;;5.20;102507.00;;;;5020048;28;20585;-64
2022/03/26 04:16:56;;;;;;;16.90;8.30;;;;;5.30;102513.00;;;;5022973;28;20280;-69
2022/03/26 04:19:42;;;;;;;17.67;6.87;;;;;5.30;102518.00;;;;5018732;28;20308;-68
2022/03/26 04:22:29;;;;;;;19.20;8.20;;;;;5.20;102511.00;;;;5014783;28;20604;-66
2022/03/26 04:25:15;;;;;;;15.13;7.23;;;;;5.30;102521.00;;;;5012533;28;20233;-65
2022/03/26 04:28:02;;;;;;;19.97;6.93;;;;;5.30;102521.00;;;;5024481;28;20308;-67
2022/03/26 04:30:48;;;;;;;16.10;7.70;;;;;5.10;102524.00;;;;5026543;28;20245;-69
2022/03/26 04:33:36;;;;;;;12.53;6.53;;;;;5.10;102527.00;;;;5026990;28;20233;-70
2022/03/26 04:36:22;;;;;;;14.23;7.13;;;;;5.20;102525.00;;;;5014063;28;20353;-67
2022/03/26 04:39:09;;;;;;;16.70;7.30;;;;;5.20;102539.00;;;;5019187;28;20233;-69
2022/03/26 04:41:55;;;;;;;16.63;7.43;;;;;5.30;102528.00;;;;5026424;28;20376;-66
2022/03/26 04:44:41;;;;;;;15.83;7.77;;;;;5.30;102530.00;;;;5026664;28;20299;-68
2022/03/26 04:47:27;;;;;;;16.13;7.43;;;;;5.40;102533.00;;;;5009963;28;20360;-68
2022/03/26 04:50:15;;;;;;;12.30;6.47;;;;;5.30;102537.00;;;;5011068;28;20776;-66
2022/03/26 04:53:02;;;;;;;15.53;6.93;;;;;5.30;102531.00;;;;5026432;28;20237;-69
2022/03/26 04:55:48;;;;;;;16.37;7.37;;;;;5.20;102538.00;;;;5026695;28;20251;-67
2022/03/26 04:58:35;;;;;;;16.40;7.03;;;;;5.20;102534.00;;;;5026656;28;21071;-69
2022/03/26 05:01:22;;;;;;;13.47;7.03;;;;;5.10;102535.00;;;;5026075;28;20284;-69
2022/03/26 05:04:08;;;;;;;13.43;6.57;;;;;5.00;102531.00;;;;5026156;28;20221;-68
2022/03/26 05:06:56;;;;;;;16.73;7.97;;;;;5.00;102523.00;;;;5025977;28;20594;-70
2022/03/26 05:09:42;;;;;;;15.30;6.90;;;;;4.90;102525.00;;;;5025752;28;20237;-68
2022/03/26 05:12:28;;;;;;;18.10;7.77;;;;;4.90;102513.00;;;;5026248;28;20221;-69
2022/03/26 05:15:15;;;;;;;16.30;7.17;;;;;4.90;102537.00;;;;5011150;28;20227;-69
2022/03/26 05:18:03;;;;;;;15.50;6.80;;;;;4.90;102531.00;;;;5021214;28;20946;-69
2022/03/26 05:20:49;;;;;;;13.40;7.33;;;;;4.90;102539.00;;;;5015587;28;20228;-69
2022/03/26 05:23:37;;;;;;;18.17;8.20;;;;;5.00;102505.00;;;;5026491;28;20232;-70
2022/03/26 05:26:23;;;;;;;17.30;7.00;;;;;4.90;102532.00;;;;5013499;28;20244;-68
2022/03/26 05:29:09;;;;;;;18.33;8.37;;;;;4.90;102548.00;;;;5025610;28;20316;-65
2022/03/26 05:31:56;;;;;;;16.60;6.90;;;;;4.80;102533.00;;;;5025075;28;20225;-69
2022/03/26 05:34:44;;;;;;;15.90;7.90;;;;;4.90;102539.00;;;;5023765;28;20782;-69
2022/03/26 05:37:30;;;;;;;16.93;7.57;;;;;4.90;102548.00;;;;5010492;28;20234;-70
2022/03/26 05:40:20;;;;;;;19.93;7.97;;;;;4.90;102544.00;;;;5025018;28;20249;-71
2022/03/26 05:43:07;;;;;;;13.30;7.17;;;;;4.90;102541.00;;;;5025364;28;20585;-69
2022/03/26 05:45:53;;;;;;;16.50;7.23;;;;;4.90;102555.00;;;;5025391;28;20229;-68
2022/03/26 05:48:40;;;;;;;21.43;9.10;;;;;4.90;102554.00;;;;5017422;28;20229;-69
2022/03/26 05:51:26;;;;;;;15.77;6.80;;;;;4.90;102552.00;;;;5013556;28;20226;-69
2022/03/26 05:54:12;;;;;;;16.60;7.43;;;;;5.00;102563.00;;;;5009796;28;20646;-69
2022/03/26 05:57:00;;;;;;;17.00;7.37;;;;;5.00;102564.00;;;;5025409;28;20292;-68
2022/03/26 05:59:46;;;;;;;17.43;7.87;;;;;5.10;102567.00;;;;5024878;28;20258;-69
2022/03/26 06:02:33;;;;;;;20.10;7.67;;;;;5.00;102564.00;;;;5025641;28;20349;-69
2022/03/26 06:05:20;;;;;;;13.67;7.23;;;;;5.10;102574.00;;;;5025180;28;20221;-69
2022/03/26 06:08:08;;;;;;;15.07;7.97;;;;;5.10;102581.00;;;;5024813;28;20233;-69
2022/03/26 06:10:54;;;;;;;19.30;8.87;;;;;5.30;102575.00;;;;5024984;28;20233;-69
2022/03/26 06:13:42;;;;;;;16.37;7.10;;;;;5.20;102572.00;;;;5025589;28;20306;-68
2022/03/26 06:16:28;;;;;;;18.17;7.57;;;;;5.20;102583.00;;;;5014038;28;20608;-68
2022/03/26 06:19:15;;;;;;;15.23;7.27;;;;;5.30;102549.00;;;;5020423;28;20232;-69
2022/03/26 06:22:02;;;;;;;15.83;8.00;;;;;5.50;102580.00;;;;5023868;28;20724;-69
2022/03/26 06:24:48;;;;;;;16.40;8.23;;;;;5.50;102574.00;;;;5024728;28;20311;-69
2022/03/26 06:27:34;;;;;;;15.23;8.37;;;;;5.60;102585.00;;;;5025335;28;20344;-69
2022/03/26 06:30:22;;;;;;;19.87;8.13;;;;;5.60;102580.00;;;;5011383;28;20717;-68
2022/03/26 06:33:08;;;;;;;17.30;7.60;;;;;5.70;102589.00;;;;5024863;28;20574;-69
2022/03/26 06:35:55;;;;;;;18.87;8.73;;;;;5.90;102592.00;;;;5022137;28;20332;-67
2022/03/26 06:38:44;;;;;;;18.17;8.83;;;;;6.00;102590.00;;;;5017758;28;20296;-68
2022/03/26 06:41:31;;;;;;;18.03;8.80;;;;;6.10;102589.00;;;;5014233;28;20220;-68
2022/03/26 06:44:17;;;;;;;20.80;9.13;;;;;6.20;102585.00;;;;5010386;28;20268;-66
2022/03/26 06:47:06;;;;;;;19.20;8.60;;;;;6.20;102586.00;;;;5018885;28;20222;-70
2022/03/26 06:49:52;;;;;;;17.77;9.27;;;;;6.30;102590.00;;;;5024349;28;20356;-69
2022/03/26 06:52:39;;;;;;;22.60;9.80;;;;;6.40;102588.00;;;;5025036;28;20307;-68
2022/03/26 06:55:26;;;;;;;23.67;10.10;;;;;6.60;102593.00;;;;5012694;28;20220;-70
2022/03/26 06:58:13;;;;;;;24.47;10.23;;;;;6.60;102569.00;;;;5008944;28;20242;-69
2022/03/26 07:01:02;;;;;;;23.10;9.63;;;;;6.80;102589.00;;;;5024783;28;20315;-67
2022/03/26 07:03:50;;;;;;;21.43;9.47;;;;;6.90;102589.00;;;;5024314;28;20233;-69
2022/03/26 07:06:36;;;;;;;19.63;9.47;;;;;6.90;102589.00;;;;5024999;28;20225;-70
2022/03/26 07:09:23;;;;;;;22.23;9.93;;;;;7.00;102587.00;;;;5011367;28;20361;-69
2022/03/26 07:12:11;;;;;;;28.67;9.57;;;;;7.20;102599.00;;;;5024437;28;20291;-68
2022/03/26 07:14:58;;;;;;;22.97;9.43;;;;;7.30;102594.00;;;;5024477;28;20226;-69
2022/03/26 07:17:44;;;;;;;16.80;9.07;;;;;7.40;102602.00;;;;5022949;28;20589;-69
2022/03/26 07:20:31;;;;;;;23.10;10.30;;;;;7.50;102594.00;;;;5007514;28;20729;-69
2022/03/26 07:23:18;;;;;;;20.60;9.70;;;;;7.70;102600.00;;;;5011966;28;20232;-69
2022/03/26 07:26:04;;;;;;;21.30;10.63;;;;;7.80;102603.00;;;;5028024;28;20582;-70
2022/03/26 07:28:50;;;;;;;21.10;10.53;;;;;8.00;102590.00;;;;5027444;28;20237;-68
2022/03/26 07:31:37;;;;;;;21.27;9.43;;;;;8.10;102594.00;;;;5028438;28;20782;-69
2022/03/26 07:34:23;;;;;;;26.13;12.10;;;;;8.20;102606.00;;;;5015213;28;20229;-69
2022/03/26 07:37:11;;;;;;;25.37;11.70;;;;;8.40;102606.00;;;;5025309;28;20387;-69
2022/03/26 07:39:57;;;;;;;22.07;10.73;;;;;8.50;102604.00;;;;5025193;28;20241;-71
2022/03/26 07:42:43;;;;;;;23.90;10.43;;;;;8.60;102611.00;;;;5027922;28;20701;-70
2022/03/26 07:45:31;;;;;;;26.60;10.90;;;;;8.80;102616.00;;;;5026653;28;20218;-70
2022/03/26 07:48:17;;;;;;;20.33;10.07;;;;;8.90;102613.00;;;;5021571;28;20373;-70
2022/03/26 07:51:04;;;;;;;25.17;10.03;;;;;9.10;102610.00;;;;5027544;28;20238;-69
2022/03/26 07:53:51;;;;;;;24.67;10.33;;;;;9.20;102610.00;;;;5027460;28;20234;-71
2022/03/26 07:56:38;;;;;;;20.87;10.10;;;;;9.50;102616.00;;;;5028037;28;20234;-71
2022/03/26 07:59:24;;;;;;;22.10;10.63;;;;;9.60;102615.00;;;;5014593;28;20299;-71
2022/03/26 08:02:10;;;;;;;22.37;9.47;;;;;9.90;102626.00;;;;5027752;28;20278;-71
2022/03/26 08:04:56;;;;;;;22.97;10.47;;;;;10.00;102629.00;;;;5028049;28;20310;-69
2022/03/26 08:07:42;;;;;;;21.77;10.30;;;;;10.00;102631.00;;;;5028022;28;20238;-69
2022/03/26 08:10:30;;;;;;;23.60;10.77;;;;;10.20;102628.00;;;;5016505;28;20324;-69
2022/03/26 08:13:17;;;;;;;23.60;9.87;;;;;10.30;102626.00;;;;5013178;28;20232;-69
2022/03/26 08:16:09;;;;;;;24.07;11.07;;;;;10.60;102643.00;;;;5027521;28;20226;-70
2022/03/26 08:18:55;;;;;;;24.40;11.03;;;;;10.60;102639.00;;;;5022793;28;20763;-69
2022/03/26 08:21:42;;;;;;;23.23;9.87;;;;;10.60;102638.00;;;;5019795;28;20595;-68
2022/03/26 08:24:28;;;;;;;21.90;10.70;;;;;10.80;102640.00;;;;5015889;28;20779;-68
2022/03/26 08:27:16;;;;;;;20.90;10.53;;;;;10.80;102647.00;;;;5011939;28;20367;-68
2022/03/26 08:30:04;;;;;;;21.07;10.40;;;;;11.10;102647.00;;;;5026595;28;20229;-69
2022/03/26 08:32:50;;;;;;;21.63;10.43;;;;;11.40;102659.00;;;;5026758;28;20233;-69
2022/03/26 08:35:38;;;;;;;19.80;9.33;;;;;11.70;102664.00;;;;5026455;28;20307;-69
2022/03/26 08:38:24;;;;;;;27.20;12.20;;;;;11.90;102652.00;;;;5007026;28;20222;-70
2022/03/26 08:41:11;;;;;;;29.70;11.93;;;;;12.00;102661.00;;;;5025879;28;20229;-68
2022/03/26 08:43:58;;;;;;;21.73;9.53;;;;;12.10;102657.00;;;;5027560;28;20233;-69
2022/03/26 08:46:45;;;;;;;26.27;9.70;;;;;12.40;102660.00;;;;5021218;28;20466;-69
2022/03/26 08:49:32;;;;;;;26.40;11.20;;;;;12.60;102668.00;;;;5021169;28;20311;-69
2022/03/26 08:52:21;;;;;;;23.07;10.10;;;;;12.70;102676.00;;;;5012449;28;20387;-70
2022/03/26 08:55:08;;;;;;;31.60;11.00;;;;;12.90;102658.00;;;;5027013;28;20221;-68
2022/03/26 08:57:57;;;;;;;25.33;10.60;;;;;13.10;102643.00;;;;5027008;28;21020;-71
2022/03/26 09:00:45;;;;;;;27.17;10.80;;;;;13.20;102664.00;;;;5026801;28;20311;-69
2022/03/26 09:03:32;;;;;;;28.57;11.70;;;;;13.50;102660.00;;;;5016523;28;20362;-66
2022/03/26 09:06:18;;;;;;;25.00;9.77;;;;;13.70;102666.00;;;;5011761;28;20229;-69
2022/03/26 09:09:04;;;;;;;28.20;10.57;;;;;13.90;102672.00;;;;5026068;28;20221;-68
2022/03/26 09:11:53;;;;;;;31.33;12.30;;;;;14.20;102673.00;;;;5026457;28;20233;-69
2022/03/26 09:14:39;;;;;;;31.13;12.40;;;;;14.10;102673.00;;;;5027384;28;20304;-69
2022/03/26 09:17:27;;;;;;;25.63;11.23;;;;;14.10;102666.00;;;;5012483;28;20895;-68
2022/03/26 09:20:13;;;;;;;28.03;10.83;;;;;14.30;102669.00;;;;5004127;28;20249;-69
2022/03/26 09:23:00;;;;;;;24.03;9.77;;;;;14.50;102668.00;;;;5026471;28;20246;-68
2022/03/26 09:25:46;;;;;;;26.33;11.03;;;;;14.40;102674.00;;;;5026408;28;20405;-69
2022/03/26 09:28:33;;;;;;;24.00;10.50;;;;;14.70;102668.00;;;;5015645;28;20352;-69
2022/03/26 09:31:20;;;;;;;21.57;9.03;;;;;14.90;102665.00;;;;5012448;28;20241;-70
2022/03/26 09:34:07;;;;;;;21.90;9.00;;;;;14.80;102685.00;;;;5025896;28;20589;-71
2022/03/26 09:36:54;;;;;;;21.13;8.90;;;;;15.00;102675.00;;;;5026113;28;20229;-71
2022/03/26 09:39:40;;;;;;;22.27;9.40;;;;;15.10;102675.00;;;;5017345;28;20233;-70
2022/03/26 09:42:27;;;;;;;16.57;8.63;;;;;15.40;102667.00;;;;5013878;28;20230;-69
2022/03/26 09:45:13;;;;;;;16.40;8.63;;;;;15.30;102670.00;;;;5025820;28;20280;-69
2022/03/26 09:47:59;;;;;;;18.83;9.10;;;;;15.30;102662.00;;;;5019450;28;20230;-67
2022/03/26 09:50:47;;;;;;;21.07;9.67;;;;;15.50;102666.00;;;;5025471;28;20313;-69
2022/03/26 09:53:35;;;;;;;16.43;8.47;;;;;15.70;102654.00;;;;5025793;28;20244;-69
2022/03/26 09:56:23;;;;;;;16.47;8.70;;;;;15.70;102661.00;;;;5011886;28;20304;-69
2022/03/26 09:59:09;;;;;;;17.67;9.20;;;;;16.20;102661.00;;;;5024419;28;20225;-69
2022/03/26 10:01:56;;;;;;;22.20;9.80;;;;;16.10;102664.00;;;;5025494;28;21067;-69
2022/03/26 10:04:43;;;;;;;21.73;9.77;;;;;16.20;102663.00;;;;5025588;28;20232;-70
2022/03/26 10:07:32;;;;;;;18.40;9.03;;;;;16.40;102666.00;;;;5014270;28;20282;-69
2022/03/26 10:10:23;;;;;;;16.37;8.90;;;;;16.40;102665.00;;;;5010664;28;20309;-69
2022/03/26 10:13:10;;;;;;;17.00;9.30;;;;;16.50;102663.00;;;;5025044;28;20297;-70
2022/03/26 10:16:03;;;;;;;19.37;9.90;;;;;16.80;102660.00;;;;5025156;28;20233;-71
2022/03/26 10:18:50;;;;;;;19.33;8.90;;;;;16.70;102653.00;;;;5022357;28;20238;-70
2022/03/26 10:21:37;;;;;;;18.33;9.03;;;;;17.00;102649.00;;;;5015816;28;20231;-70
2022/03/26 10:24:26;;;;;;;16.50;8.57;;;;;17.10;102654.00;;;;5024924;28;20228;-70
2022/03/26 10:27:13;;;;;;;20.53;9.30;;;;;17.20;102647.00;;;;5008831;28;20229;-69
2022/03/26 10:30:00;;;;;;;17.03;9.20;;;;;17.10;102650.00;;;;5024707;28;20244;-68
2022/03/26 10:32:49;;;;;;;22.10;8.77;;;;;17.20;102650.00;;;;5025071;28;20244;-71
2022/03/26 10:35:36;;;;;;;20.17;10.17;;;;;17.10;102647.00;;;;5015649;28;20234;-69
2022/03/26 10:38:28;;;;;;;18.23;9.13;;;;;17.00;102640.00;;;;5008927;28;20577;-69
2022/03/26 10:41:22;;;;;;;18.13;9.13;;;;;17.30;102639.00;;;;5011108;28;20596;-70
2022/03/26 10:44:11;;;;;;;15.87;8.53;;;;;17.50;102638.00;;;;5024793;28;20241;-71
2022/03/26 10:47:02;;;;;;;16.60;7.83;;;;;17.50;102630.00;;;;5018826;28;20289;-69
2022/03/26 10:49:49;;;;;;;21.20;8.50;;;;;17.60;102640.00;;;;5024395;28;20765;-69
2022/03/26 10:52:35;;;;;;;15.63;7.63;;;;;17.50;102633.00;;;;5025257;28;20738;-70
2022/03/26 10:55:22;;;;;;;15.00;7.57;;;;;17.90;102640.00;;;;5024653;28;20717;-71
2022/03/26 10:58:10;;;;;;;14.27;7.90;;;;;18.00;102641.00;;;;5026384;28;20336;-70
2022/03/26 11:00:57;;;;;;;17.83;8.50;;;;;17.90;102634.00;;;;5028540;28;20597;-69
2022/03/26 11:03:44;;;;;;;16.80;8.20;;;;;18.00;102633.00;;;;5028961;28;20241;-69
2022/03/26 11:06:34;;;;;;;18.33;8.67;;;;;18.00;102640.00;;;;5018043;28;20225;-70
2022/03/26 11:09:21;;;;;;;14.50;8.10;;;;;17.90;102640.00;;;;5013980;28;20808;-70
2022/03/26 11:12:08;;;;;;;13.03;6.80;;;;;18.50;102631.00;;;;5028280;28;20245;-69
2022/03/26 11:14:58;;;;;;;14.40;7.57;;;;;18.40;102621.00;;;;5028023;28;20307;-69
2022/03/26 11:18:05;;;;;;;13.10;8.13;;;;;18.20;102609.00;;;;5026231;28;20237;-69
2022/03/26 11:21:19;;;;;;;14.07;7.53;;;;;18.60;102629.00;;;;5016008;28;20229;-69
2022/03/26 11:24:31;;;;;;;14.50;7.90;;;;;18.50;102626.00;;;;5028019;28;20229;-72
2022/03/26 11:27:33;;;;;;;10.67;6.03;;;;;18.60;102628.00;;;;4988506;28;20553;-70
2022/03/26 11:30:34;;;;;;;10.77;5.47;;;;;18.70;102625.00;;;;5013270;28;20229;-70
2022/03/26 11:33:21;;;;;;;9.03;5.63;;;;;18.80;102629.00;;;;5013661;28;20347;-68
2022/03/26 11:36:08;;;;;;;7.00;4.80;;;;;18.80;102633.00;;;;5028225;28;20238;-70
2022/03/26 11:38:56;;;;;;;11.73;6.27;;;;;18.90;102608.00;;;;5020240;28;20244;-73
2022/03/26 11:41:44;;;;;;;11.17;5.77;;;;;19.00;102616.00;;;;5028399;28;20380;-69
2022/03/26 11:44:33;;;;;;;9.50;5.50;;;;;19.10;102618.00;;;;5016786;28;20257;-68
2022/03/26 11:50:42;;;;;;;11.50;6.03;;;;;19.40;102609.00;;;;5014770;28;20228;-69
2022/03/26 11:53:35;;;;;;;7.87;5.30;;;;;19.20;102602.00;;;;5015842;28;20241;-69
2022/03/26 11:56:23;;;;;;;9.63;5.07;;;;;19.30;102598.00;;;;5013872;28;20377;-70
2022/03/26 11:59:27;;;;;;;9.97;6.00;;;;;19.30;102607.00;;;;5026996;28;20229;-70
2022/03/26 12:02:18;;;;;;;10.33;5.43;;;;;19.10;102599.00;;;;5011021;28;20229;-70
2022/03/26 12:08:17;;;;;;;9.47;5.43;;;;;19.40;102596.00;;;;5026734;28;20233;-70
2022/03/26 12:11:04;;;;;;;11.30;5.63;;;;;19.30;102595.00;;;;5027111;28;20237;-69
2022/03/26 12:14:04;;;;;;;10.40;5.43;;;;;19.60;102592.00;;;;5026769;28;20300;-70
2022/03/26 12:16:54;;;;;;;10.17;5.47;;;;;19.40;102585.00;;;;5026775;28;20316;-70
2022/03/26 12:19:48;;;;;;;10.23;5.90;;;;;19.70;102586.00;;;;5019156;28;20728;-71
2022/03/26 12:22:39;;;;;;;7.80;5.13;;;;;19.80;102573.00;;;;5027098;28;20230;-70
2022/03/26 12:25:38;;;;;;;11.87;6.00;;;;;19.60;102591.00;;;;5014518;28;20694;-70
2022/03/26 12:28:33;;;;;;;9.40;5.60;;;;;19.70;102578.00;;;;5013897;28;20337;-70
2022/03/26 12:31:19;;;;;;;9.70;5.87;;;;;19.90;102574.00;;;;5012454;28;20229;-69
2022/03/26 12:34:06;;;;;;;10.10;5.87;;;;;19.90;102576.00;;;;5027003;28;20610;-70
2022/03/26 12:37:00;;;;;;;8.50;5.43;;;;;20.00;102570.00;;;;5026808;28;20268;-71
2022/03/26 12:39:48;;;;;;;11.30;6.13;;;;;20.00;102576.00;;;;5019525;28;20307;-70
2022/03/26 12:42:35;;;;;;;12.33;6.90;;;;;19.90;102577.00;;;;5021031;28;20243;-67
2022/03/26 12:45:22;;;;;;;10.87;6.10;;;;;19.90;102577.00;;;;5012574;28;20308;-70
2022/03/26 12:48:12;;;;;;;10.10;6.13;;;;;19.90;102564.00;;;;5019939;28;20660;-70
2022/03/26 12:51:04;;;;;;;13.77;6.83;;;;;20.20;102568.00;;;;5026405;28;20262;-70
2022/03/26 12:53:50;;;;;;;12.57;6.80;;;;;20.20;102566.00;;;;5026637;28;20242;-67
2022/03/26 12:56:38;;;;;;;12.03;6.10;;;;;20.40;102564.00;;;;5026921;28;20234;-68
2022/03/26 12:59:23;;;;;;;14.33;7.03;;;;;20.50;102574.00;;;;5012780;28;20792;-70
2022/03/26 13:02:11;;;;;;;13.20;7.77;;;;;20.60;102564.00;;;;5026395;28;20228;-69
2022/03/26 13:04:57;;;;;;;13.90;6.83;;;;;20.50;102561.00;;;;5026274;28;20854;-69
2022/03/26 13:07:44;;;;;;;12.70;7.37;;;;;20.50;102559.00;;;;5026446;28;20235;-69
2022/03/26 13:10:35;;;;;;;13.33;6.80;;;;;20.70;102568.00;;;;5014647;28;20347;-69
2022/03/26 13:13:24;;;;;;;18.30;7.77;;;;;20.90;102567.00;;;;5012066;28;20736;-70
2022/03/26 13:16:13;;;;;;;14.23;8.57;;;;;20.90;102561.00;;;;5026556;28;20237;-71
2022/03/26 13:19:03;;;;;;;18.07;8.70;;;;;20.60;102566.00;;;;5022493;28;20305;-70
2022/03/26 13:21:50;;;;;;;17.53;9.33;;;;;20.70;102558.00;;;;5022069;28;20234;-70
2022/03/26 13:24:50;;;;;;;16.30;8.70;;;;;21.10;102563.00;;;;5026446;28;20719;-70
2022/03/26 13:27:37;;;;;;;17.20;8.23;;;;;20.90;102572.00;;;;5016185;28;20234;-69
2022/03/26 13:30:24;;;;;;;15.27;7.90;;;;;20.60;102558.00;;;;5011941;28;20231;-70
2022/03/26 13:33:15;;;;;;;16.93;9.00;;;;;20.50;102558.00;;;;5025996;28;20243;-69
2022/03/26 13:36:04;;;;;;;14.20;8.70;;;;;20.90;102547.00;;;;5025506;28;20268;-70
2022/03/26 13:38:50;;;;;;;19.23;9.03;;;;;20.80;102548.00;;;;5017025;28;20264;-69
2022/03/26 13:41:37;;;;;;;16.67;8.80;;;;;21.20;102550.00;;;;5026016;28;20281;-70
2022/03/26 13:44:26;;;;;;;17.27;9.50;;;;;21.20;102549.00;;;;5012194;28;20235;-68
2022/03/26 13:47:16;;;;;;;14.80;8.23;;;;;21.10;102537.00;;;;5019359;28;20283;-68
2022/03/26 13:50:04;;;;;;;17.00;8.60;;;;;21.10;102540.00;;;;5025002;28;20727;-70